sensor_id;sensor_type;location;lat;lon;timestamp;P1;durP1;ratioP1;P2;durP2;ratioP2
39776;SDS011;25453;48.162;14.510;2024-03-07T00:00:07;7.25;;;3.40;;
39776;SDS011;25453;48.162;14.510;2024-03-07T00:02:45;10.48;;;3.80;;
39776;SDS011;25453;48.162;14.510;2024-03-07T00:05:15;12.43;;;3.00;;
39776;SDS011;25453;48.162;14.510;2024-03-07T00:07:44;7.97;;;3.72;;
39776;SDS011;25453;48.162;14.510;2024-03-07T00:10:13;8.95;;;3.70;;
39776;SDS011;25453;48.162;14.510;2024-03-07T00:12:42;8.45;;;3.40;;
39776;SDS011;25453;48.162;14.510;2024-03-07T00:15:10;6.78;;;3.25;;
39776;SDS011;25453;48.162;14.510;2024-03-07T00:17:40;9.18;;;4.07;;
39776;SDS011;25453;48.162;14.510;2024-03-07T00:20:08;10.98;;;4.70;;
39776;SDS011;25453;48.162;14.510;2024-03-07T00:22:42;9.02;;;4.30;;
39776;SDS011;25453;48.162;14.510;2024-03-07T00:25:10;6.93;;;3.28;;
39776;SDS011;25453;48.162;14.510;2024-03-07T00:27:40;10.23;;;4.15;;
39776;SDS011;25453;48.162;14.510;2024-03-07T09:20:31;14.48;;;5.88;;
39776;SDS011;25453;48.162;14.510;2024-03-07T09:23:00;17.02;;;7.10;;
39776;SDS011;25453;48.162;14.510;2024-03-07T09:25:27;14.18;;;5.80;;
39776;SDS011;25453;48.162;14.510;2024-03-07T09:28:03;13.20;;;5.78;;
39776;SDS011;25453;48.162;14.510;2024-03-07T09:30:33;12.05;;;5.78;;
39776;SDS011;25453;48.162;14.510;2024-03-07T09:33:01;14.27;;;6.50;;
39776;SDS011;25453;48.162;14.510;2024-03-07T09:35:29;13.20;;;5.72;;
39776;SDS011;25453;48.162;14.510;2024-03-07T09:37:56;11.90;;;5.53;;
39776;SDS011;25453;48.162;14.510;2024-03-07T09:40:24;11.82;;;5.20;;
39776;SDS011;25453;48.162;14.510;2024-03-07T09:42:53;11.30;;;5.07;;
39776;SDS011;25453;48.162;14.510;2024-03-07T09:45:23;15.27;;;5.63;;
39776;SDS011;25453;48.162;14.510;2024-03-07T09:47:58;12.20;;;5.50;;
39776;SDS011;25453;48.162;14.510;2024-03-07T09:50:26;12.00;;;5.88;;
39776;SDS011;25453;48.162;14.510;2024-03-07T09:52:55;10.93;;;5.40;;
39776;SDS011;25453;48.162;14.510;2024-03-07T09:55:24;10.55;;;4.03;;
39776;SDS011;25453;48.162;14.510;2024-03-07T09:57:53;12.48;;;5.07;;
39776;SDS011;25453;48.162;14.510;2024-03-07T10:00:23;11.48;;;5.60;;
39776;SDS011;25453;48.162;14.510;2024-03-07T10:03:13;12.38;;;5.30;;
39776;SDS011;25453;48.162;14.510;2024-03-07T10:05:43;12.57;;;4.93;;
39776;SDS011;25453;48.162;14.510;2024-03-07T10:08:11;10.23;;;4.40;;
39776;SDS011;25453;48.162;14.510;2024-03-07T10:10:40;9.70;;;5.00;;
39776;SDS011;25453;48.162;14.510;2024-03-07T10:13:11;11.38;;;4.40;;
39776;SDS011;25453;48.162;14.510;2024-03-07T10:15:38;13.55;;;5.85;;
39776;SDS011;25453;48.162;14.510;2024-03-07T10:18:07;11.05;;;5.05;;
39776;SDS011;25453;48.162;14.510;2024-03-07T10:20:37;11.52;;;4.82;;
39776;SDS011;25453;48.162;14.510;2024-03-07T10:23:06;11.55;;;5.20;;
39776;SDS011;25453;48.162;14.510;2024-03-07T10:25:34;16.15;;;7.10;;
39776;SDS011;25453;48.162;14.510;2024-03-07T10:28:02;18.35;;;8.43;;
39776;SDS011;25453;48.162;14.510;2024-03-07T10:30:30;15.73;;;7.43;;
39776;SDS011;25453;48.162;14.510;2024-03-07T10:33:05;18.33;;;6.88;;
39776;SDS011;25453;48.162;14.510;2024-03-07T10:35:34;18.13;;;7.93;;
39776;SDS011;25453;48.162;14.510;2024-03-07T10:38:01;14.65;;;7.22;;
39776;SDS011;25453;48.162;14.510;2024-03-07T10:40:34;15.38;;;6.93;;
39776;SDS011;25453;48.162;14.510;2024-03-07T10:43:11;15.43;;;7.35;;
39776;SDS011;25453;48.162;14.510;2024-03-07T10:45:45;17.63;;;8.27;;
39776;SDS011;25453;48.162;14.510;2024-03-07T10:48:18;16.77;;;8.00;;
39776;SDS011;25453;48.162;14.510;2024-03-07T10:51:11;16.88;;;7.45;;
39776;SDS011;25453;48.162;14.510;2024-03-07T10:54:05;17.13;;;8.60;;
39776;SDS011;25453;48.162;14.510;2024-03-07T10:59:32;19.85;;;8.98;;
39776;SDS011;25453;48.162;14.510;2024-03-07T11:02:11;15.98;;;7.68;;
39776;SDS011;25453;48.162;14.510;2024-03-07T11:04:51;12.73;;;6.63;;
39776;SDS011;25453;48.162;14.510;2024-03-07T11:07:22;17.77;;;7.70;;
39776;SDS011;25453;48.162;14.510;2024-03-07T11:09:51;15.68;;;7.95;;
39776;SDS011;25453;48.162;14.510;2024-03-07T11:12:22;15.23;;;7.65;;
39776;SDS011;25453;48.162;14.510;2024-03-07T11:14:51;18.88;;;8.68;;
39776;SDS011;25453;48.162;14.510;2024-03-07T11:17:20;19.05;;;8.05;;
39776;SDS011;25453;48.162;14.510;2024-03-07T11:19:48;19.52;;;8.68;;
39776;SDS011;25453;48.162;14.510;2024-03-07T11:22:31;17.20;;;7.80;;
39776;SDS011;25453;48.162;14.510;2024-03-07T11:25:02;18.17;;;8.25;;
39776;SDS011;25453;48.162;14.510;2024-03-07T11:27:37;16.05;;;6.78;;
39776;SDS011;25453;48.162;14.510;2024-03-07T11:30:06;15.30;;;6.90;;
39776;SDS011;25453;48.162;14.510;2024-03-07T11:32:37;18.67;;;8.00;;
39776;SDS011;25453;48.162;14.510;2024-03-07T11:35:05;17.20;;;6.78;;
39776;SDS011;25453;48.162;14.510;2024-03-07T11:42:52;17.30;;;6.68;;
39776;SDS011;25453;48.162;14.510;2024-03-07T11:45:20;18.10;;;7.78;;
39776;SDS011;25453;48.162;14.510;2024-03-07T11:47:57;15.70;;;7.68;;
39776;SDS011;25453;48.162;14.510;2024-03-07T11:50:34;20.40;;;8.63;;
39776;SDS011;25453;48.162;14.510;2024-03-07T11:53:03;21.08;;;9.02;;
39776;SDS011;25453;48.162;14.510;2024-03-07T11:55:35;19.60;;;8.25;;
39776;SDS011;25453;48.162;14.510;2024-03-07T11:58:15;19.77;;;7.93;;
39776;SDS011;25453;48.162;14.510;2024-03-07T12:00:49;17.88;;;8.30;;
39776;SDS011;25453;48.162;14.510;2024-03-07T12:03:21;19.20;;;8.48;;
39776;SDS011;25453;48.162;14.510;2024-03-07T12:05:49;19.92;;;8.55;;
39776;SDS011;25453;48.162;14.510;2024-03-07T12:08:20;17.00;;;8.15;;
39776;SDS011;25453;48.162;14.510;2024-03-07T12:10:51;15.32;;;7.38;;
39776;SDS011;25453;48.162;14.510;2024-03-07T12:13:24;15.18;;;6.70;;
39776;SDS011;25453;48.162;14.510;2024-03-07T12:15:53;15.75;;;6.88;;
39776;SDS011;25453;48.162;14.510;2024-03-07T12:18:22;15.73;;;7.68;;
39776;SDS011;25453;48.162;14.510;2024-03-07T12:20:51;15.90;;;6.85;;
39776;SDS011;25453;48.162;14.510;2024-03-07T12:23:23;17.02;;;6.75;;
39776;SDS011;25453;48.162;14.510;2024-03-07T12:26:02;15.05;;;7.30;;
39776;SDS011;25453;48.162;14.510;2024-03-07T12:28:32;14.52;;;6.05;;
39776;SDS011;25453;48.162;14.510;2024-03-07T12:31:01;13.48;;;6.05;;
39776;SDS011;25453;48.162;14.510;2024-03-07T12:33:29;15.45;;;6.13;;
39776;SDS011;25453;48.162;14.510;2024-03-07T12:36:01;14.05;;;6.65;;
39776;SDS011;25453;48.162;14.510;2024-03-07T12:38:33;16.20;;;6.38;;
39776;SDS011;25453;48.162;14.510;2024-03-07T12:41:05;11.73;;;5.53;;
39776;SDS011;25453;48.162;14.510;2024-03-07T12:43:34;9.45;;;4.68;;
39776;SDS011;25453;48.162;14.510;2024-03-07T12:46:02;14.15;;;5.80;;
39776;SDS011;25453;48.162;14.510;2024-03-07T12:48:32;11.63;;;5.80;;
39776;SDS011;25453;48.162;14.510;2024-03-07T12:51:00;12.73;;;5.70;;
39776;SDS011;25453;48.162;14.510;2024-03-07T12:53:28;14.10;;;6.20;;
39776;SDS011;25453;48.162;14.510;2024-03-07T12:55:56;15.85;;;6.50;;
39776;SDS011;25453;48.162;14.510;2024-03-07T12:58:24;16.05;;;6.78;;
39776;SDS011;25453;48.162;14.510;2024-03-07T13:00:53;11.35;;;5.75;;
39776;SDS011;25453;48.162;14.510;2024-03-07T13:03:24;11.40;;;5.50;;
39776;SDS011;25453;48.162;14.510;2024-03-07T13:05:57;11.90;;;5.78;;
39776;SDS011;25453;48.162;14.510;2024-03-07T13:08:29;12.63;;;5.68;;
39776;SDS011;25453;48.162;14.510;2024-03-07T13:10:57;12.38;;;5.68;;
39776;SDS011;25453;48.162;14.510;2024-03-07T13:13:28;8.65;;;4.53;;
39776;SDS011;25453;48.162;14.510;2024-03-07T13:15:55;11.10;;;4.30;;
39776;SDS011;25453;48.162;14.510;2024-03-07T13:18:22;8.63;;;3.83;;
39776;SDS011;25453;48.162;14.510;2024-03-07T13:20:51;7.10;;;3.05;;
39776;SDS011;25453;48.162;14.510;2024-03-07T13:23:18;8.68;;;4.32;;
39776;SDS011;25453;48.162;14.510;2024-03-07T13:25:46;8.05;;;3.90;;
39776;SDS011;25453;48.162;14.510;2024-03-07T13:28:15;9.85;;;3.72;;
39776;SDS011;25453;48.162;14.510;2024-03-07T13:30:44;8.35;;;3.72;;
39776;SDS011;25453;48.162;14.510;2024-03-07T13:33:16;8.10;;;3.75;;
39776;SDS011;25453;48.162;14.510;2024-03-07T13:35:44;6.75;;;3.35;;
39776;SDS011;25453;48.162;14.510;2024-03-07T13:38:12;9.15;;;4.18;;
39776;SDS011;25453;48.162;14.510;2024-03-07T13:40:39;7.50;;;3.58;;
39776;SDS011;25453;48.162;14.510;2024-03-07T13:43:07;9.38;;;4.53;;
39776;SDS011;25453;48.162;14.510;2024-03-07T13:45:35;11.20;;;4.63;;
39776;SDS011;25453;48.162;14.510;2024-03-07T13:48:06;10.32;;;4.82;;
39776;SDS011;25453;48.162;14.510;2024-03-07T13:50:35;8.90;;;4.57;;
39776;SDS011;25453;48.162;14.510;2024-03-07T13:53:24;15.52;;;6.85;;
39776;SDS011;25453;48.162;14.510;2024-03-07T14:01:41;11.68;;;4.82;;
39776;SDS011;25453;48.162;14.510;2024-03-07T14:04:43;20.23;;;6.75;;
39776;SDS011;25453;48.162;14.510;2024-03-07T14:10:08;18.75;;;7.43;;
39776;SDS011;25453;48.162;14.510;2024-03-07T14:16:16;14.95;;;6.35;;
39776;SDS011;25453;48.162;14.510;2024-03-07T14:19:14;16.67;;;7.07;;
39776;SDS011;25453;48.162;14.510;2024-03-07T14:30:52;15.15;;;7.43;;
39776;SDS011;25453;48.162;14.510;2024-03-07T14:33:31;16.15;;;6.47;;
39776;SDS011;25453;48.162;14.510;2024-03-07T14:36:14;13.38;;;6.70;;
39776;SDS011;25453;48.162;14.510;2024-03-07T14:38:50;14.43;;;6.15;;
39776;SDS011;25453;48.162;14.510;2024-03-07T14:41:23;11.55;;;5.47;;
39776;SDS011;25453;48.162;14.510;2024-03-07T14:44:10;12.75;;;5.03;;
39776;SDS011;25453;48.162;14.510;2024-03-07T14:46:37;11.25;;;4.47;;
39776;SDS011;25453;48.162;14.510;2024-03-07T14:49:04;12.38;;;5.18;;
39776;SDS011;25453;48.162;14.510;2024-03-07T14:51:31;11.73;;;5.38;;
39776;SDS011;25453;48.162;14.510;2024-03-07T14:54:13;13.73;;;5.82;;
39776;SDS011;25453;48.162;14.510;2024-03-07T14:56:40;10.57;;;5.10;;
39776;SDS011;25453;48.162;14.510;2024-03-07T14:59:07;12.38;;;5.13;;
39776;SDS011;25453;48.162;14.510;2024-03-07T15:01:35;11.13;;;5.22;;
39776;SDS011;25453;48.162;14.510;2024-03-07T15:04:03;12.90;;;5.68;;
39776;SDS011;25453;48.162;14.510;2024-03-07T15:06:34;11.60;;;5.60;;
39776;SDS011;25453;48.162;14.510;2024-03-07T15:09:01;14.40;;;6.10;;
39776;SDS011;25453;48.162;14.510;2024-03-07T15:11:38;12.27;;;5.30;;
39776;SDS011;25453;48.162;14.510;2024-03-07T15:14:07;11.75;;;5.78;;
39776;SDS011;25453;48.162;14.510;2024-03-07T15:16:38;14.77;;;5.55;;
39776;SDS011;25453;48.162;14.510;2024-03-07T15:19:07;12.93;;;5.68;;
39776;SDS011;25453;48.162;14.510;2024-03-07T15:21:35;18.13;;;6.28;;
39776;SDS011;25453;48.162;14.510;2024-03-07T15:24:04;15.18;;;5.40;;
39776;SDS011;25453;48.162;14.510;2024-03-07T15:26:31;12.77;;;5.95;;
39776;SDS011;25453;48.162;14.510;2024-03-07T15:28:59;11.50;;;5.43;;
39776;SDS011;25453;48.162;14.510;2024-03-07T15:31:27;10.63;;;5.35;;
39776;SDS011;25453;48.162;14.510;2024-03-07T15:33:55;13.10;;;6.22;;
39776;SDS011;25453;48.162;14.510;2024-03-07T15:36:23;12.45;;;5.95;;
39776;SDS011;25453;48.162;14.510;2024-03-07T15:38:52;12.68;;;5.05;;
39776;SDS011;25453;48.162;14.510;2024-03-07T15:41:20;12.07;;;5.40;;
39776;SDS011;25453;48.162;14.510;2024-03-07T15:43:48;12.45;;;5.25;;
39776;SDS011;25453;48.162;14.510;2024-03-07T15:46:15;14.65;;;5.00;;
39776;SDS011;25453;48.162;14.510;2024-03-07T15:48:45;9.48;;;4.50;;
39776;SDS011;25453;48.162;14.510;2024-03-07T15:51:16;10.68;;;4.20;;
39776;SDS011;25453;48.162;14.510;2024-03-07T15:53:44;11.45;;;4.63;;
39776;SDS011;25453;48.162;14.510;2024-03-07T15:56:11;8.10;;;3.65;;
39776;SDS011;25453;48.162;14.510;2024-03-07T15:58:40;11.52;;;4.10;;
39776;SDS011;25453;48.162;14.510;2024-03-07T16:01:07;10.10;;;3.88;;
39776;SDS011;25453;48.162;14.510;2024-03-07T16:03:35;6.70;;;4.07;;
39776;SDS011;25453;48.162;14.510;2024-03-07T16:06:03;10.05;;;4.57;;
39776;SDS011;25453;48.162;14.510;2024-03-07T16:08:32;10.05;;;4.25;;
39776;SDS011;25453;48.162;14.510;2024-03-07T16:11:00;9.52;;;4.85;;
39776;SDS011;25453;48.162;14.510;2024-03-07T16:13:29;11.48;;;4.18;;
39776;SDS011;25453;48.162;14.510;2024-03-07T16:15:57;8.88;;;4.20;;
39776;SDS011;25453;48.162;14.510;2024-03-07T16:18:25;9.55;;;4.65;;
39776;SDS011;25453;48.162;14.510;2024-03-07T16:20:52;12.82;;;4.65;;
39776;SDS011;25453;48.162;14.510;2024-03-07T16:23:23;9.68;;;4.40;;
39776;SDS011;25453;48.162;14.510;2024-03-07T16:25:50;10.27;;;4.40;;
39776;SDS011;25453;48.162;14.510;2024-03-07T16:28:17;11.15;;;4.95;;
39776;SDS011;25453;48.162;14.510;2024-03-07T16:30:48;10.32;;;4.82;;
39776;SDS011;25453;48.162;14.510;2024-03-07T16:33:15;10.70;;;4.43;;
39776;SDS011;25453;48.162;14.510;2024-03-07T16:35:44;11.45;;;4.35;;
39776;SDS011;25453;48.162;14.510;2024-03-07T16:38:12;8.52;;;3.78;;
39776;SDS011;25453;48.162;14.510;2024-03-07T16:40:40;9.57;;;3.50;;
39776;SDS011;25453;48.162;14.510;2024-03-07T16:43:10;7.20;;;4.00;;
39776;SDS011;25453;48.162;14.510;2024-03-07T16:45:40;9.63;;;3.50;;
39776;SDS011;25453;48.162;14.510;2024-03-07T16:48:09;8.43;;;3.08;;
39776;SDS011;25453;48.162;14.510;2024-03-07T16:50:38;10.73;;;4.13;;
39776;SDS011;25453;48.162;14.510;2024-03-07T16:53:10;7.80;;;3.47;;
39776;SDS011;25453;48.162;14.510;2024-03-07T16:55:38;8.15;;;2.92;;
39776;SDS011;25453;48.162;14.510;2024-03-07T16:58:06;8.82;;;3.25;;
39776;SDS011;25453;48.162;14.510;2024-03-07T17:00:39;8.13;;;3.08;;
39776;SDS011;25453;48.162;14.510;2024-03-07T17:03:10;7.97;;;3.25;;
39776;SDS011;25453;48.162;14.510;2024-03-07T17:05:40;6.63;;;2.75;;
39776;SDS011;25453;48.162;14.510;2024-03-07T17:08:10;6.25;;;2.72;;
39776;SDS011;25453;48.162;14.510;2024-03-07T17:10:43;7.07;;;2.75;;
39776;SDS011;25453;48.162;14.510;2024-03-07T17:13:12;7.57;;;2.55;;
39776;SDS011;25453;48.162;14.510;2024-03-07T17:15:42;9.00;;;3.20;;
39776;SDS011;25453;48.162;14.510;2024-03-07T17:18:11;7.65;;;3.45;;
39776;SDS011;25453;48.162;14.510;2024-03-07T17:20:40;7.50;;;2.80;;
39776;SDS011;25453;48.162;14.510;2024-03-07T17:23:12;6.65;;;3.22;;
39776;SDS011;25453;48.162;14.510;2024-03-07T17:25:40;7.55;;;3.72;;
39776;SDS011;25453;48.162;14.510;2024-03-07T17:28:08;9.93;;;4.13;;
39776;SDS011;25453;48.162;14.510;2024-03-07T17:30:35;8.90;;;3.45;;
39776;SDS011;25453;48.162;14.510;2024-03-07T17:33:05;9.32;;;3.55;;
39776;SDS011;25453;48.162;14.510;2024-03-07T17:35:34;8.50;;;3.58;;
39776;SDS011;25453;48.162;14.510;2024-03-07T17:38:07;11.70;;;4.53;;
39776;SDS011;25453;48.162;14.510;2024-03-07T17:40:38;12.38;;;4.30;;
39776;SDS011;25453;48.162;14.510;2024-03-07T17:43:06;9.45;;;4.03;;
39776;SDS011;25453;48.162;14.510;2024-03-07T17:45:36;8.77;;;3.65;;
39776;SDS011;25453;48.162;14.510;2024-03-07T17:48:04;11.80;;;4.38;;
39776;SDS011;25453;48.162;14.510;2024-03-07T17:50:35;11.52;;;4.82;;
39776;SDS011;25453;48.162;14.510;2024-03-07T17:53:04;8.10;;;3.88;;
39776;SDS011;25453;48.162;14.510;2024-03-07T17:55:38;11.27;;;4.55;;
39776;SDS011;25453;48.162;14.510;2024-03-07T17:58:13;9.55;;;4.40;;
39776;SDS011;25453;48.162;14.510;2024-03-07T18:00:43;11.23;;;3.67;;
39776;SDS011;25453;48.162;14.510;2024-03-07T18:03:12;13.02;;;5.20;;
39776;SDS011;25453;48.162;14.510;2024-03-07T18:05:40;9.73;;;4.20;;
39776;SDS011;25453;48.162;14.510;2024-03-07T18:08:09;10.18;;;4.68;;
39776;SDS011;25453;48.162;14.510;2024-03-07T18:10:40;10.60;;;4.15;;
39776;SDS011;25453;48.162;14.510;2024-03-07T18:13:11;10.48;;;4.65;;
39776;SDS011;25453;48.162;14.510;2024-03-07T18:15:41;11.32;;;4.18;;
39776;SDS011;25453;48.162;14.510;2024-03-07T18:18:09;10.10;;;4.30;;
39776;SDS011;25453;48.162;14.510;2024-03-07T18:20:38;12.30;;;4.50;;
39776;SDS011;25453;48.162;14.510;2024-03-07T18:23:11;10.35;;;4.45;;
39776;SDS011;25453;48.162;14.510;2024-03-07T18:25:41;10.20;;;5.22;;
39776;SDS011;25453;48.162;14.510;2024-03-07T18:28:09;12.38;;;4.38;;
39776;SDS011;25453;48.162;14.510;2024-03-07T18:30:36;9.93;;;5.00;;
39776;SDS011;25453;48.162;14.510;2024-03-07T18:33:04;12.10;;;4.82;;
39776;SDS011;25453;48.162;14.510;2024-03-07T18:35:32;12.68;;;5.10;;
39776;SDS011;25453;48.162;14.510;2024-03-07T18:38:06;13.63;;;4.10;;
39776;SDS011;25453;48.162;14.510;2024-03-07T18:40:34;10.23;;;4.47;;
39776;SDS011;25453;48.162;14.510;2024-03-07T18:43:02;12.52;;;5.30;;
39776;SDS011;25453;48.162;14.510;2024-03-07T18:45:38;8.55;;;3.92;;
39776;SDS011;25453;48.162;14.510;2024-03-07T18:48:11;8.88;;;4.22;;
39776;SDS011;25453;48.162;14.510;2024-03-07T18:50:41;13.48;;;4.90;;
39776;SDS011;25453;48.162;14.510;2024-03-07T18:53:15;9.43;;;4.03;;
39776;SDS011;25453;48.162;14.510;2024-03-07T18:55:47;12.82;;;5.25;;
39776;SDS011;25453;48.162;14.510;2024-03-07T18:58:17;9.05;;;3.95;;
39776;SDS011;25453;48.162;14.510;2024-03-07T19:00:45;12.93;;;5.40;;
39776;SDS011;25453;48.162;14.510;2024-03-07T19:03:16;10.27;;;4.47;;
39776;SDS011;25453;48.162;14.510;2024-03-07T19:05:48;10.68;;;5.13;;
39776;SDS011;25453;48.162;14.510;2024-03-07T19:08:17;12.25;;;5.53;;
39776;SDS011;25453;48.162;14.510;2024-03-07T19:10:45;13.40;;;5.80;;
39776;SDS011;25453;48.162;14.510;2024-03-07T19:13:14;12.25;;;4.78;;
39776;SDS011;25453;48.162;14.510;2024-03-07T19:15:47;11.18;;;4.78;;
39776;SDS011;25453;48.162;14.510;2024-03-07T19:18:15;12.90;;;5.55;;
39776;SDS011;25453;48.162;14.510;2024-03-07T19:20:47;10.63;;;5.10;;
39776;SDS011;25453;48.162;14.510;2024-03-07T19:23:16;12.38;;;5.05;;
39776;SDS011;25453;48.162;14.510;2024-03-07T19:25:47;13.40;;;5.70;;
39776;SDS011;25453;48.162;14.510;2024-03-07T19:28:17;14.07;;;5.57;;
39776;SDS011;25453;48.162;14.510;2024-03-07T19:30:48;11.75;;;5.68;;
39776;SDS011;25453;48.162;14.510;2024-03-07T19:33:19;10.57;;;5.30;;
39776;SDS011;25453;48.162;14.510;2024-03-07T19:35:53;14.35;;;5.22;;
39776;SDS011;25453;48.162;14.510;2024-03-07T19:38:26;10.90;;;4.80;;
39776;SDS011;25453;48.162;14.510;2024-03-07T19:40:55;11.63;;;4.88;;
39776;SDS011;25453;48.162;14.510;2024-03-07T19:43:22;9.27;;;4.65;;
39776;SDS011;25453;48.162;14.510;2024-03-07T19:45:52;10.55;;;4.45;;
39776;SDS011;25453;48.162;14.510;2024-03-07T19:48:22;11.02;;;5.25;;
39776;SDS011;25453;48.162;14.510;2024-03-07T19:50:52;12.70;;;5.57;;
39776;SDS011;25453;48.162;14.510;2024-03-07T19:53:24;12.38;;;5.72;;
39776;SDS011;25453;48.162;14.510;2024-03-07T19:55:51;11.20;;;5.50;;
39776;SDS011;25453;48.162;14.510;2024-03-07T19:58:19;11.65;;;4.82;;
39776;SDS011;25453;48.162;14.510;2024-03-07T20:00:51;14.38;;;5.18;;
39776;SDS011;25453;48.162;14.510;2024-03-07T20:03:18;12.70;;;6.30;;
39776;SDS011;25453;48.162;14.510;2024-03-07T20:05:49;10.18;;;4.63;;
39776;SDS011;25453;48.162;14.510;2024-03-07T20:08:20;12.35;;;5.18;;
39776;SDS011;25453;48.162;14.510;2024-03-07T20:10:55;11.93;;;4.82;;
39776;SDS011;25453;48.162;14.510;2024-03-07T20:13:25;11.82;;;4.97;;
39776;SDS011;25453;48.162;14.510;2024-03-07T20:15:52;12.05;;;5.25;;
39776;SDS011;25453;48.162;14.510;2024-03-07T20:18:24;9.05;;;4.20;;
39776;SDS011;25453;48.162;14.510;2024-03-07T20:20:52;10.48;;;5.00;;
39776;SDS011;25453;48.162;14.510;2024-03-07T20:23:19;9.77;;;4.97;;
39776;SDS011;25453;48.162;14.510;2024-03-07T20:25:46;9.20;;;4.80;;
39776;SDS011;25453;48.162;14.510;2024-03-07T20:28:13;10.55;;;4.80;;
39776;SDS011;25453;48.162;14.510;2024-03-07T20:30:41;9.35;;;4.35;;
39776;SDS011;25453;48.162;14.510;2024-03-07T20:33:12;8.77;;;4.63;;
39776;SDS011;25453;48.162;14.510;2024-03-07T20:35:40;7.75;;;3.85;;
39776;SDS011;25453;48.162;14.510;2024-03-07T20:38:08;10.45;;;4.07;;
39776;SDS011;25453;48.162;14.510;2024-03-07T20:40:42;9.52;;;3.80;;
39776;SDS011;25453;48.162;14.510;2024-03-07T20:43:09;9.85;;;4.03;;
39776;SDS011;25453;48.162;14.510;2024-03-07T20:45:37;9.15;;;4.40;;
39776;SDS011;25453;48.162;14.510;2024-03-07T20:48:05;8.07;;;3.83;;
39776;SDS011;25453;48.162;14.510;2024-03-07T20:50:39;9.45;;;4.57;;
39776;SDS011;25453;48.162;14.510;2024-03-07T20:53:08;6.75;;;3.35;;
39776;SDS011;25453;48.162;14.510;2024-03-07T20:55:39;8.43;;;4.35;;
39776;SDS011;25453;48.162;14.510;2024-03-07T20:58:09;7.38;;;3.88;;
39776;SDS011;25453;48.162;14.510;2024-03-07T21:00:36;8.98;;;4.20;;
39776;SDS011;25453;48.162;14.510;2024-03-07T21:03:05;13.75;;;4.78;;
39776;SDS011;25453;48.162;14.510;2024-03-07T21:05:35;10.82;;;5.03;;
39776;SDS011;25453;48.162;14.510;2024-03-07T21:08:03;8.85;;;4.95;;
39776;SDS011;25453;48.162;14.510;2024-03-07T21:10:31;10.00;;;4.53;;
39776;SDS011;25453;48.162;14.510;2024-03-07T21:13:02;11.75;;;4.60;;
39776;SDS011;25453;48.162;14.510;2024-03-07T21:15:30;10.65;;;4.95;;
39776;SDS011;25453;48.162;14.510;2024-03-07T21:17:57;10.68;;;4.63;;
39776;SDS011;25453;48.162;14.510;2024-03-07T21:20:27;8.93;;;4.43;;
39776;SDS011;25453;48.162;14.510;2024-03-07T21:22:54;9.95;;;4.47;;
39776;SDS011;25453;48.162;14.510;2024-03-07T21:25:21;9.77;;;4.13;;
39776;SDS011;25453;48.162;14.510;2024-03-07T21:27:49;9.85;;;4.53;;
39776;SDS011;25453;48.162;14.510;2024-03-07T21:30:17;9.32;;;3.90;;
39776;SDS011;25453;48.162;14.510;2024-03-07T21:32:54;10.40;;;4.78;;
39776;SDS011;25453;48.162;14.510;2024-03-07T21:35:21;14.77;;;5.82;;
39776;SDS011;25453;48.162;14.510;2024-03-07T21:37:49;17.05;;;7.40;;
39776;SDS011;25453;48.162;14.510;2024-03-07T21:40:17;16.90;;;7.38;;
39776;SDS011;25453;48.162;14.510;2024-03-07T21:42:46;18.73;;;6.85;;
39776;SDS011;25453;48.162;14.510;2024-03-07T21:45:17;17.50;;;7.55;;
39776;SDS011;25453;48.162;14.510;2024-03-07T21:47:45;16.33;;;8.00;;
39776;SDS011;25453;48.162;14.510;2024-03-07T21:50:13;11.90;;;6.10;;
39776;SDS011;25453;48.162;14.510;2024-03-07T21:52:44;16.73;;;7.57;;
39776;SDS011;25453;48.162;14.510;2024-03-07T21:55:12;15.55;;;7.28;;
39776;SDS011;25453;48.162;14.510;2024-03-07T21:57:43;20.80;;;8.88;;
39776;SDS011;25453;48.162;14.510;2024-03-07T22:00:13;28.00;;;11.18;;
39776;SDS011;25453;48.162;14.510;2024-03-07T22:02:50;35.13;;;13.18;;
39776;SDS011;25453;48.162;14.510;2024-03-07T22:05:27;31.35;;;13.77;;
39776;SDS011;25453;48.162;14.510;2024-03-07T22:07:58;33.75;;;13.77;;
39776;SDS011;25453;48.162;14.510;2024-03-07T22:10:27;37.15;;;15.25;;
39776;SDS011;25453;48.162;14.510;2024-03-07T22:12:56;34.15;;;14.77;;
39776;SDS011;25453;48.162;14.510;2024-03-07T22:15:23;31.88;;;13.73;;
39776;SDS011;25453;48.162;14.510;2024-03-07T22:17:51;41.40;;;16.75;;
39776;SDS011;25453;48.162;14.510;2024-03-07T22:20:20;37.47;;;15.75;;
39776;SDS011;25453;48.162;14.510;2024-03-07T22:22:50;44.63;;;17.02;;
39776;SDS011;25453;48.162;14.510;2024-03-07T22:25:19;41.50;;;17.00;;
39776;SDS011;25453;48.162;14.510;2024-03-07T22:27:49;37.38;;;15.60;;
39776;SDS011;25453;48.162;14.510;2024-03-07T22:30:17;36.60;;;16.38;;
39776;SDS011;25453;48.162;14.510;2024-03-07T22:32:50;44.10;;;17.83;;
39776;SDS011;25453;48.162;14.510;2024-03-07T22:35:19;44.80;;;18.75;;
39776;SDS011;25453;48.162;14.510;2024-03-07T22:37:47;49.55;;;17.77;;
39776;SDS011;25453;48.162;14.510;2024-03-07T22:40:19;44.53;;;17.67;;
39776;SDS011;25453;48.162;14.510;2024-03-07T22:42:51;44.92;;;18.25;;
39776;SDS011;25453;48.162;14.510;2024-03-07T22:45:19;47.33;;;18.55;;
39776;SDS011;25453;48.162;14.510;2024-03-07T22:47:46;57.78;;;20.60;;
39776;SDS011;25453;48.162;14.510;2024-03-07T22:50:19;46.50;;;18.40;;
39776;SDS011;25453;48.162;14.510;2024-03-07T22:52:56;51.75;;;19.55;;
39776;SDS011;25453;48.162;14.510;2024-03-07T22:55:25;50.75;;;18.15;;
39776;SDS011;25453;48.162;14.510;2024-03-07T22:57:52;53.70;;;20.00;;
39776;SDS011;25453;48.162;14.510;2024-03-07T23:00:21;51.22;;;21.35;;
39776;SDS011;25453;48.162;14.510;2024-03-07T23:02:55;49.85;;;19.48;;
39776;SDS011;25453;48.162;14.510;2024-03-07T23:05:25;52.72;;;20.30;;
39776;SDS011;25453;48.162;14.510;2024-03-07T23:07:55;47.53;;;18.55;;
39776;SDS011;25453;48.162;14.510;2024-03-07T23:10:22;49.30;;;19.52;;
39776;SDS011;25453;48.162;14.510;2024-03-07T23:12:49;51.90;;;18.75;;
39776;SDS011;25453;48.162;14.510;2024-03-07T23:15:19;54.33;;;20.40;;
39776;SDS011;25453;48.162;14.510;2024-03-07T23:17:52;49.75;;;19.75;;
39776;SDS011;25453;48.162;14.510;2024-03-07T23:20:24;57.10;;;20.25;;
39776;SDS011;25453;48.162;14.510;2024-03-07T23:22:54;56.53;;;20.80;;
39776;SDS011;25453;48.162;14.510;2024-03-07T23:25:24;46.22;;;20.35;;
39776;SDS011;25453;48.162;14.510;2024-03-07T23:27:51;51.25;;;18.95;;
39776;SDS011;25453;48.162;14.510;2024-03-07T23:30:21;51.65;;;19.98;;
39776;SDS011;25453;48.162;14.510;2024-03-07T23:32:51;55.25;;;20.67;;
39776;SDS011;25453;48.162;14.510;2024-03-07T23:35:20;53.90;;;20.55;;
39776;SDS011;25453;48.162;14.510;2024-03-07T23:37:48;58.63;;;20.67;;
39776;SDS011;25453;48.162;14.510;2024-03-07T23:40:18;49.33;;;19.65;;
39776;SDS011;25453;48.162;14.510;2024-03-07T23:42:47;54.67;;;21.63;;
39776;SDS011;25453;48.162;14.510;2024-03-07T23:45:19;57.03;;;21.05;;
39776;SDS011;25453;48.162;14.510;2024-03-07T23:47:48;58.42;;;22.70;;
39776;SDS011;25453;48.162;14.510;2024-03-07T23:50:15;43.83;;;19.45;;
39776;SDS011;25453;48.162;14.510;2024-03-07T23:52:44;56.40;;;21.80;;
39776;SDS011;25453;48.162;14.510;2024-03-07T23:55:13;57.17;;;22.70;;
39776;SDS011;25453;48.162;14.510;2024-03-07T23:57:44;54.00;;;21.25;;
